Time;durP1;ratioP1;P1;durP2;ratioP2;P2;SDS_P1;SDS_P2;PMS_P1;PMS_P2;Temp;Humidity;BMP_temperature;BMP_pressure;BME280_temperature;BME280_humidity;BME280_pressure;Samples;Min_cycle;Max_cycle;Signal;HPM_P1;HPM_P2
2023/09/29 00:01:30;;;;;;;17.15;5.72;;;;;;;;;;5179571;27;20089;-73
2023/09/29 00:04:15;;;;;;;15.95;6.10;;;;;;;;;;5179207;27;20030;-73
2023/09/29 00:07:01;;;;;;;16.98;5.75;;;;;;;;;;5179535;27;20029;-73
2023/09/29 00:09:47;;;;;;;11.13;5.35;;;;;;;;;;5180528;27;20014;-73
2023/09/29 00:12:33;;;;;;;12.88;5.47;;;;;;;;;;5165780;27;20022;-73
2023/09/29 00:15:19;;;;;;;13.68;5.75;;;;;;;;;;5180045;27;20171;-73
2023/09/29 00:18:05;;;;;;;13.15;5.68;;;;;;;;;;5165407;27;20033;-73
2023/09/29 00:20:50;;;;;;;17.10;6.15;;;;;;;;;;5166002;27;20136;-72
2023/09/29 00:23:36;;;;;;;13.68;6.18;;;;;;;;;;5179557;27;20025;-73
2023/09/29 00:26:22;;;;;;;14.05;6.00;;;;;;;;;;5166800;27;20026;-73
2023/09/29 00:29:07;;;;;;;10.32;5.75;;;;;;;;;;5165916;27;20049;-73
2023/09/29 00:31:54;;;;;;;13.10;6.15;;;;;;;;;;5179652;27;20014;-73
2023/09/29 00:34:39;;;;;;;14.27;6.60;;;;;;;;;;5182257;27;20022;-73
2023/09/29 00:37:25;;;;;;;18.08;6.45;;;;;;;;;;5178649;27;20026;-74
2023/09/29 00:40:12;;;;;;;11.00;6.05;;;;;;;;;;5179271;27;20018;-73
2023/09/29 00:42:59;;;;;;;11.85;6.18;;;;;;;;;;5179005;27;20026;-73
2023/09/29 00:45:47;;;;;;;10.93;5.95;;;;;;;;;;5180118;27;20034;-73
2023/09/29 00:48:33;;;;;;;19.92;6.53;;;;;;;;;;5179482;27;20390;-74
2023/09/29 00:51:21;;;;;;;9.77;5.95;;;;;;;;;;5179664;27;20043;-73
2023/09/29 00:54:08;;;;;;;10.25;5.70;;;;;;;;;;5164868;27;20134;-72
2023/09/29 00:56:55;;;;;;;14.20;5.97;;;;;;;;;;5179511;27;20037;-73
2023/09/29 00:59:41;;;;;;;12.10;5.65;;;;;;;;;;5165097;27;20093;-73
2023/09/29 01:02:28;;;;;;;14.50;6.20;;;;;;;;;;5184590;27;20026;-72
2023/09/29 01:05:14;;;;;;;11.65;6.15;;;;;;;;;;5169892;27;20030;-73
2023/09/29 01:07:59;;;;;;;15.60;6.13;;;;;;;;;;5165622;27;20025;-73
2023/09/29 01:10:45;;;;;;;13.52;6.15;;;;;;;;;;5165960;27;20065;-72
2023/09/29 01:13:35;;;;;;;12.43;6.03;;;;;;;;;;5182148;27;20101;-73
2023/09/29 01:16:21;;;;;;;18.02;6.30;;;;;;;;;;5181092;27;20018;-72
2023/09/29 01:19:11;;;;;;;10.43;6.32;;;;;;;;;;5164486;27;20026;-72
2023/09/29 01:21:57;;;;;;;22.92;7.38;;;;;;;;;;5163862;27;20018;-71
2023/09/29 01:24:44;;;;;;;10.23;6.35;;;;;;;;;;5180445;27;20073;-72
2023/09/29 01:27:29;;;;;;;15.00;6.15;;;;;;;;;;5178172;27;20022;-75
2023/09/29 01:30:18;;;;;;;18.50;7.35;;;;;;;;;;5188452;27;20018;-72
2023/09/29 01:33:04;;;;;;;21.58;6.88;;;;;;;;;;5187837;27;20026;-72
2023/09/29 01:35:50;;;;;;;15.93;6.72;;;;;;;;;;5177678;27;20022;-72
2023/09/29 01:38:36;;;;;;;17.00;6.85;;;;;;;;;;5178291;27;20036;-72
2023/09/29 01:41:21;;;;;;;14.07;7.18;;;;;;;;;;5178086;27;20420;-73
2023/09/29 01:44:07;;;;;;;10.40;6.38;;;;;;;;;;5177354;27;20037;-73
2023/09/29 01:46:53;;;;;;;16.83;7.18;;;;;;;;;;5177987;27;20018;-72
2023/09/29 01:49:38;;;;;;;21.02;7.07;;;;;;;;;;5177357;27;20195;-73
2023/09/29 01:52:24;;;;;;;13.85;6.63;;;;;;;;;;5177001;27;20344;-73
2023/09/29 01:55:14;;;;;;;14.75;6.57;;;;;;;;;;5177059;27;20101;-72
2023/09/29 01:58:00;;;;;;;12.57;6.80;;;;;;;;;;5184889;27;20339;-73
2023/09/29 02:00:46;;;;;;;14.45;6.97;;;;;;;;;;5177545;27;20022;-73
2023/09/29 02:03:31;;;;;;;17.02;6.95;;;;;;;;;;5177550;27;20018;-72
2023/09/29 02:06:17;;;;;;;15.85;7.28;;;;;;;;;;5177222;27;20038;-73
2023/09/29 02:09:11;;;;;;;17.55;8.10;;;;;;;;;;5177285;27;20030;-73
2023/09/29 02:11:56;;;;;;;20.92;7.72;;;;;;;;;;5177040;27;20017;-73
2023/09/29 02:14:42;;;;;;;16.48;9.02;;;;;;;;;;5177203;27;20014;-73
2023/09/29 02:17:28;;;;;;;15.60;8.68;;;;;;;;;;5177235;27;20060;-73
2023/09/29 02:20:18;;;;;;;21.77;8.95;;;;;;;;;;5176845;27;20078;-73
2023/09/29 02:23:05;;;;;;;21.45;9.82;;;;;;;;;;5177208;27;20074;-72
2023/09/29 02:25:51;;;;;;;16.92;9.60;;;;;;;;;;5177335;27;20018;-73
2023/09/29 02:28:37;;;;;;;21.27;10.07;;;;;;;;;;5177052;27;20022;-72
2023/09/29 02:31:23;;;;;;;15.60;8.77;;;;;;;;;;5161619;27;20014;-72
2023/09/29 02:34:09;;;;;;;20.08;9.25;;;;;;;;;;5177228;27;20064;-72
2023/09/29 02:36:54;;;;;;;18.33;8.82;;;;;;;;;;5177027;27;20029;-72
2023/09/29 02:39:40;;;;;;;18.80;8.30;;;;;;;;;;5177052;27;20026;-73
2023/09/29 02:42:25;;;;;;;16.42;8.27;;;;;;;;;;5176523;27;20018;-73
2023/09/29 02:45:12;;;;;;;16.25;8.52;;;;;;;;;;5176926;27;20018;-73
2023/09/29 02:47:57;;;;;;;15.05;8.27;;;;;;;;;;5176396;27;20070;-73
2023/09/29 02:50:43;;;;;;;15.43;8.10;;;;;;;;;;5175436;27;20371;-73
2023/09/29 02:53:28;;;;;;;16.33;8.32;;;;;;;;;;5176560;27;20494;-74
2023/09/29 02:56:16;;;;;;;15.05;7.57;;;;;;;;;;5175968;27;20084;-72
2023/09/29 02:59:04;;;;;;;17.77;7.93;;;;;;;;;;5175979;27;20026;-73
2023/09/29 03:01:50;;;;;;;20.98;8.38;;;;;;;;;;5176597;27;20032;-71
2023/09/29 03:04:39;;;;;;;15.77;8.10;;;;;;;;;;5176128;27;20023;-72
2023/09/29 03:07:24;;;;;;;18.73;8.50;;;;;;;;;;5176762;27;20064;-72
2023/09/29 03:10:14;;;;;;;20.42;8.07;;;;;;;;;;5160685;27;20045;-72
2023/09/29 03:13:00;;;;;;;16.13;7.88;;;;;;;;;;5175558;27;20018;-72
2023/09/29 03:15:48;;;;;;;17.02;8.52;;;;;;;;;;5161094;27;20026;-73
2023/09/29 03:18:37;;;;;;;18.02;9.07;;;;;;;;;;5175678;27;20029;-72
2023/09/29 03:21:23;;;;;;;21.15;8.63;;;;;;;;;;5176064;27;20105;-72
2023/09/29 03:24:10;;;;;;;16.75;9.15;;;;;;;;;;5175662;27;20097;-72
2023/09/29 03:26:55;;;;;;;21.50;8.30;;;;;;;;;;5176367;27;20037;-72
2023/09/29 03:29:41;;;;;;;16.98;8.32;;;;;;;;;;5175219;27;20054;-73
2023/09/29 03:32:29;;;;;;;16.20;8.23;;;;;;;;;;5176338;27;20015;-72
2023/09/29 03:35:14;;;;;;;18.23;8.77;;;;;;;;;;5176388;27;20026;-73
2023/09/29 03:38:00;;;;;;;16.70;8.60;;;;;;;;;;5175569;27;20011;-72
2023/09/29 03:40:50;;;;;;;16.38;8.80;;;;;;;;;;5176285;27;20010;-72
2023/09/29 03:43:35;;;;;;;15.88;9.73;;;;;;;;;;5176709;27;20018;-72
2023/09/29 03:46:24;;;;;;;17.40;9.40;;;;;;;;;;5175795;27;20025;-71
2023/09/29 03:49:12;;;;;;;17.45;8.80;;;;;;;;;;5175785;27;20042;-70
2023/09/29 03:52:00;;;;;;;15.80;8.95;;;;;;;;;;5176439;27;20018;-71
2023/09/29 03:54:45;;;;;;;21.38;9.52;;;;;;;;;;5175615;27;20455;-72
2023/09/29 03:57:32;;;;;;;15.48;9.13;;;;;;;;;;5175377;27;20127;-72
2023/09/29 04:00:18;;;;;;;14.73;9.40;;;;;;;;;;5175198;27;20018;-73
2023/09/29 04:03:04;;;;;;;19.48;8.90;;;;;;;;;;5175417;27;20026;-72
2023/09/29 04:05:49;;;;;;;22.10;9.07;;;;;;;;;;5176122;27;20459;-72
2023/09/29 04:08:35;;;;;;;17.13;10.02;;;;;;;;;;5175441;27;20072;-72
2023/09/29 04:11:21;;;;;;;17.13;10.15;;;;;;;;;;5176971;27;20029;-72
2023/09/29 04:14:07;;;;;;;19.58;10.05;;;;;;;;;;5175511;27;20312;-73
2023/09/29 04:16:52;;;;;;;17.42;9.23;;;;;;;;;;5178545;27;20392;-73
2023/09/29 04:19:38;;;;;;;22.27;9.50;;;;;;;;;;5179130;27;20022;-72
2023/09/29 04:22:24;;;;;;;13.43;9.25;;;;;;;;;;5164758;27;20049;-72
2023/09/29 04:25:10;;;;;;;20.73;9.77;;;;;;;;;;5179019;27;20044;-72
2023/09/29 04:27:55;;;;;;;21.38;9.48;;;;;;;;;;5178952;27;20037;-72
2023/09/29 04:30:41;;;;;;;19.23;10.02;;;;;;;;;;5178200;27;20086;-73
2023/09/29 04:33:28;;;;;;;23.42;10.27;;;;;;;;;;5178948;27;20467;-71
2023/09/29 04:36:13;;;;;;;22.05;9.38;;;;;;;;;;5178976;27;20033;-74
2023/09/29 04:38:59;;;;;;;18.02;9.02;;;;;;;;;;5163649;27;20018;-72
2023/09/29 04:41:44;;;;;;;22.77;10.23;;;;;;;;;;5177766;27;20099;-74
2023/09/29 04:44:33;;;;;;;21.92;9.57;;;;;;;;;;5178967;27;20396;-71
2023/09/29 04:47:18;;;;;;;22.63;10.20;;;;;;;;;;5178603;27;20101;-71
2023/09/29 04:50:07;;;;;;;27.02;10.40;;;;;;;;;;5178343;27;20121;-72
2023/09/29 04:52:53;;;;;;;23.05;9.82;;;;;;;;;;5164465;27;20078;-72
2023/09/29 04:55:38;;;;;;;25.88;9.85;;;;;;;;;;5178382;27;20011;-72
2023/09/29 04:58:24;;;;;;;31.48;10.30;;;;;;;;;;5178435;27;20010;-73
2023/09/29 05:01:16;;;;;;;24.75;10.25;;;;;;;;;;5179274;27;20467;-72
2023/09/29 05:04:02;;;;;;;19.15;9.98;;;;;;;;;;5179575;27;20399;-71
2023/09/29 05:06:48;;;;;;;24.83;10.20;;;;;;;;;;5178848;27;20423;-71
2023/09/29 05:09:34;;;;;;;17.20;9.98;;;;;;;;;;5177633;27;20018;-72
2023/09/29 05:12:20;;;;;;;23.20;9.77;;;;;;;;;;5179709;27;20075;-71
2023/09/29 05:15:06;;;;;;;21.55;9.50;;;;;;;;;;5177561;27;20079;-72
2023/09/29 05:17:52;;;;;;;23.02;9.35;;;;;;;;;;5179008;27;20023;-73
2023/09/29 05:20:38;;;;;;;20.60;10.40;;;;;;;;;;5178084;27;20021;-72
2023/09/29 05:23:24;;;;;;;21.48;10.43;;;;;;;;;;5177898;27;20101;-71
2023/09/29 05:26:09;;;;;;;21.73;9.38;;;;;;;;;;5177316;27;20018;-73
2023/09/29 05:28:55;;;;;;;21.92;10.05;;;;;;;;;;5181135;27;20118;-72
2023/09/29 05:31:41;;;;;;;22.02;10.05;;;;;;;;;;5180833;27;20352;-73
2023/09/29 05:34:28;;;;;;;21.83;9.75;;;;;;;;;;5187480;27;20010;-73
2023/09/29 05:37:13;;;;;;;24.75;9.52;;;;;;;;;;5180922;27;20097;-72
2023/09/29 05:40:03;;;;;;;25.02;10.57;;;;;;;;;;5179547;27;20022;-72
2023/09/29 05:42:49;;;;;;;26.45;9.98;;;;;;;;;;5162993;27;20106;-72
2023/09/29 05:45:34;;;;;;;19.20;9.52;;;;;;;;;;5178292;27;20054;-72
2023/09/29 05:48:20;;;;;;;22.98;9.65;;;;;;;;;;5177629;27;20029;-73
2023/09/29 05:51:05;;;;;;;22.63;9.88;;;;;;;;;;5177897;27;20042;-72
2023/09/29 05:53:51;;;;;;;30.13;10.57;;;;;;;;;;5176765;27;20010;-73
2023/09/29 05:56:37;;;;;;;21.05;10.50;;;;;;;;;;5178096;27;20021;-73
2023/09/29 05:59:22;;;;;;;39.60;10.93;;;;;;;;;;5162534;27;20036;-72
2023/09/29 06:02:08;;;;;;;25.75;10.25;;;;;;;;;;5176756;27;20025;-73
2023/09/29 06:04:55;;;;;;;24.92;10.63;;;;;;;;;;5177582;27;20061;-73
2023/09/29 06:07:41;;;;;;;21.92;10.55;;;;;;;;;;5177566;27;20022;-73
2023/09/29 06:10:26;;;;;;;25.70;10.18;;;;;;;;;;5177192;27;20026;-74
2023/09/29 06:13:12;;;;;;;23.83;10.25;;;;;;;;;;5162994;27;20081;-73
2023/09/29 06:15:58;;;;;;;29.42;9.73;;;;;;;;;;5177399;27;20018;-74
2023/09/29 06:18:44;;;;;;;23.95;9.60;;;;;;;;;;5161473;27;20105;-72
2023/09/29 06:21:29;;;;;;;29.92;9.90;;;;;;;;;;5178173;27;20014;-73
2023/09/29 06:24:15;;;;;;;24.17;9.57;;;;;;;;;;5166292;27;20105;-74
2023/09/29 06:27:01;;;;;;;27.10;10.45;;;;;;;;;;5177576;27;20026;-75
2023/09/29 06:29:50;;;;;;;26.25;9.98;;;;;;;;;;5177914;27;20014;-74
2023/09/29 06:32:35;;;;;;;21.80;9.50;;;;;;;;;;5177177;27;20022;-74
2023/09/29 06:35:21;;;;;;;30.45;10.32;;;;;;;;;;5178148;27;20018;-72
2023/09/29 06:38:06;;;;;;;22.10;9.20;;;;;;;;;;5176583;27;20082;-74
2023/09/29 06:40:52;;;;;;;26.40;9.70;;;;;;;;;;5176726;27;20010;-72
2023/09/29 06:43:38;;;;;;;22.67;9.50;;;;;;;;;;5177275;27;20018;-72
2023/09/29 06:46:23;;;;;;;13.95;8.88;;;;;;;;;;5179224;27;20094;-74
2023/09/29 06:49:09;;;;;;;19.73;9.38;;;;;;;;;;5175887;27;20467;-72
2023/09/29 06:51:55;;;;;;;18.67;8.95;;;;;;;;;;5176594;27;20026;-73
2023/09/29 06:54:40;;;;;;;18.77;8.57;;;;;;;;;;5177946;27;20014;-72
2023/09/29 06:57:26;;;;;;;15.48;8.10;;;;;;;;;;5176566;27;20077;-71
2023/09/29 07:00:12;;;;;;;15.90;8.50;;;;;;;;;;5176846;27;20015;-72
2023/09/29 07:02:57;;;;;;;15.60;8.43;;;;;;;;;;5177620;27;20014;-72
2023/09/29 07:05:43;;;;;;;19.20;9.00;;;;;;;;;;5178782;27;20382;-71
2023/09/29 07:08:29;;;;;;;22.25;8.73;;;;;;;;;;5163039;27;20344;-73
2023/09/29 07:11:14;;;;;;;19.58;7.70;;;;;;;;;;5164992;27;20022;-73
2023/09/29 07:14:00;;;;;;;23.00;7.88;;;;;;;;;;5161455;27;20010;-72
2023/09/29 07:16:49;;;;;;;18.88;7.72;;;;;;;;;;5176981;27;20033;-71
2023/09/29 07:19:35;;;;;;;17.85;7.70;;;;;;;;;;5175654;27;20034;-72
2023/09/29 07:22:21;;;;;;;17.23;7.13;;;;;;;;;;5176068;27;20078;-74
2023/09/29 07:25:06;;;;;;;15.10;7.00;;;;;;;;;;5161623;27;20434;-73
2023/09/29 07:27:52;;;;;;;22.10;7.40;;;;;;;;;;5177288;27;20026;-73
2023/09/29 07:30:37;;;;;;;17.23;7.30;;;;;;;;;;5176371;27;20026;-72
2023/09/29 07:33:26;;;;;;;13.45;6.63;;;;;;;;;;5176214;27;20450;-73
2023/09/29 07:36:19;;;;;;;23.67;7.32;;;;;;;;;;5163895;27;20038;-72
2023/09/29 07:39:07;;;;;;;9.55;7.03;;;;;;;;;;5178818;27;20033;-73
2023/09/29 07:41:53;;;;;;;17.10;7.57;;;;;;;;;;5177443;27;20492;-73
2023/09/29 07:44:45;;;;;;;16.80;7.55;;;;;;;;;;5179380;27;20023;-74
2023/09/29 07:47:31;;;;;;;14.18;7.15;;;;;;;;;;5178387;27;20018;-72
2023/09/29 07:50:17;;;;;;;19.08;7.60;;;;;;;;;;5178142;27;20352;-73
2023/09/29 07:53:06;;;;;;;15.00;7.30;;;;;;;;;;5183108;27;20083;-73
2023/09/29 07:55:52;;;;;;;16.05;7.70;;;;;;;;;;5181609;27;20010;-72
2023/09/29 07:58:38;;;;;;;12.35;7.50;;;;;;;;;;5167326;27;20025;-73
2023/09/29 08:01:24;;;;;;;12.18;7.43;;;;;;;;;;5181879;27;20033;-71
2023/09/29 08:04:10;;;;;;;12.43;7.45;;;;;;;;;;5181525;27;20053;-72
2023/09/29 08:06:55;;;;;;;11.52;6.75;;;;;;;;;;5179700;27;20367;-72
2023/09/29 08:09:41;;;;;;;12.52;7.50;;;;;;;;;;5165305;27;20432;-70
2023/09/29 08:12:32;;;;;;;11.77;7.13;;;;;;;;;;5167459;27;20041;-75
2023/09/29 08:15:20;;;;;;;14.82;7.05;;;;;;;;;;5179978;27;20018;-74
2023/09/29 08:18:06;;;;;;;13.20;7.03;;;;;;;;;;5179740;27;20097;-75
2023/09/29 08:20:54;;;;;;;16.05;7.07;;;;;;;;;;5179393;27;20022;-74
2023/09/29 08:23:40;;;;;;;12.75;6.60;;;;;;;;;;5179658;27;20104;-74
2023/09/29 08:26:25;;;;;;;16.23;8.57;;;;;;;;;;5180163;27;20045;-74
2023/09/29 08:29:15;;;;;;;12.93;7.07;;;;;;;;;;5165435;27;20032;-73
2023/09/29 08:32:01;;;;;;;11.30;7.40;;;;;;;;;;5178491;27;20362;-73
2023/09/29 08:34:47;;;;;;;17.05;7.20;;;;;;;;;;5179526;27;20436;-74
2023/09/29 08:37:32;;;;;;;14.52;6.65;;;;;;;;;;5180580;27;20166;-75
2023/09/29 08:40:18;;;;;;;13.75;6.65;;;;;;;;;;5178992;27;20457;-75
2023/09/29 08:43:06;;;;;;;14.52;7.25;;;;;;;;;;5178791;27;20125;-73
2023/09/29 08:45:54;;;;;;;16.15;6.97;;;;;;;;;;5179160;27;20022;-73
2023/09/29 08:48:42;;;;;;;12.05;7.03;;;;;;;;;;5179721;27;20113;-73
2023/09/29 08:51:28;;;;;;;13.50;6.40;;;;;;;;;;5180313;27;20105;-73
2023/09/29 08:54:14;;;;;;;14.98;7.00;;;;;;;;;;5179854;27;20026;-73
2023/09/29 08:57:00;;;;;;;14.38;7.20;;;;;;;;;;5180263;27;20022;-73
2023/09/29 08:59:48;;;;;;;12.70;6.80;;;;;;;;;;5179115;27;20106;-72
2023/09/29 09:02:33;;;;;;;14.02;7.20;;;;;;;;;;5179681;27;20018;-75
2023/09/29 09:05:20;;;;;;;13.32;7.68;;;;;;;;;;5163743;27;20033;-73
2023/09/29 09:08:06;;;;;;;12.32;7.47;;;;;;;;;;5178689;27;20475;-72
2023/09/29 09:11:02;;;;;;;15.68;7.47;;;;;;;;;;5179600;27;20450;-73
2023/09/29 09:13:59;;;;;;;15.02;7.53;;;;;;;;;;5178497;27;20018;-72
2023/09/29 09:16:45;;;;;;;17.40;7.13;;;;;;;;;;5178964;27;20105;-72
2023/09/29 09:19:31;;;;;;;15.90;7.90;;;;;;;;;;5178294;27;20033;-73
2023/09/29 09:22:31;;;;;;;12.50;7.65;;;;;;;;;;5181919;27;20105;-74
2023/09/29 09:25:17;;;;;;;14.27;7.15;;;;;;;;;;5163442;27;20015;-73
2023/09/29 09:28:03;;;;;;;17.63;7.60;;;;;;;;;;5178007;27;20082;-73
2023/09/29 09:30:59;;;;;;;17.50;8.00;;;;;;;;;;5178937;27;20071;-73
2023/09/29 09:33:53;;;;;;;15.38;7.93;;;;;;;;;;5163189;27;20026;-73
2023/09/29 09:36:55;;;;;;;14.85;8.13;;;;;;;;;;5178927;27;20113;-72
2023/09/29 09:39:42;;;;;;;19.95;8.05;;;;;;;;;;5179096;27;20033;-73
2023/09/29 09:42:28;;;;;;;17.00;7.75;;;;;;;;;;5164608;27;20439;-72
2023/09/29 09:45:14;;;;;;;16.33;7.30;;;;;;;;;;5163716;27;20396;-72
2023/09/29 09:47:59;;;;;;;17.75;8.23;;;;;;;;;;5182236;27;20018;-70
2023/09/29 09:50:49;;;;;;;19.48;8.30;;;;;;;;;;5184439;27;20038;-74
2023/09/29 09:53:37;;;;;;;13.05;7.70;;;;;;;;;;5181868;27;20378;-72
2023/09/29 09:56:26;;;;;;;14.02;7.43;;;;;;;;;;5180769;27;20158;-71
2023/09/29 09:59:15;;;;;;;13.60;7.53;;;;;;;;;;5179957;27;20091;-73
2023/09/29 10:02:06;;;;;;;15.95;7.53;;;;;;;;;;5166443;27;20026;-73
2023/09/29 10:04:52;;;;;;;33.05;8.15;;;;;;;;;;5179502;27;20114;-73
2023/09/29 10:07:45;;;;;;;20.45;7.75;;;;;;;;;;5181179;27;20019;-74
2023/09/29 10:10:32;;;;;;;17.17;8.20;;;;;;;;;;5181527;27;20130;-73
2023/09/29 10:13:17;;;;;;;16.42;7.78;;;;;;;;;;5167261;27;20086;-74
2023/09/29 10:16:19;;;;;;;19.35;8.05;;;;;;;;;;5181360;27;20022;-73
2023/09/29 10:19:12;;;;;;;17.50;7.68;;;;;;;;;;5177795;27;20018;-74
2023/09/29 10:22:00;;;;;;;13.52;7.90;;;;;;;;;;5178552;27;20358;-73
2023/09/29 10:24:46;;;;;;;16.25;8.07;;;;;;;;;;5177006;27;20022;-74
2023/09/29 10:27:33;;;;;;;23.67;7.82;;;;;;;;;;5177504;27;20480;-74
2023/09/29 10:30:26;;;;;;;14.52;8.30;;;;;;;;;;5176271;27;20440;-74
2023/09/29 10:33:11;;;;;;;15.23;7.38;;;;;;;;;;5177394;27;20426;-73
2023/09/29 10:35:57;;;;;;;15.93;7.65;;;;;;;;;;5176292;27;20093;-74
2023/09/29 10:38:43;;;;;;;11.95;7.38;;;;;;;;;;5177209;27;20109;-74
2023/09/29 10:41:31;;;;;;;11.57;7.68;;;;;;;;;;5178253;27;20297;-73
2023/09/29 10:44:17;;;;;;;25.67;8.68;;;;;;;;;;5176289;27;20018;-74
2023/09/29 10:47:05;;;;;;;14.52;7.75;;;;;;;;;;5161018;27;20014;-74
2023/09/29 10:49:50;;;;;;;13.30;7.80;;;;;;;;;;5176934;27;20069;-72
2023/09/29 10:52:36;;;;;;;13.75;7.47;;;;;;;;;;5176810;27;20485;-73
2023/09/29 10:55:22;;;;;;;15.88;7.28;;;;;;;;;;5176948;27;20042;-74
2023/09/29 10:58:09;;;;;;;18.08;7.57;;;;;;;;;;5176772;27;20022;-74
2023/09/29 11:00:55;;;;;;;18.70;7.25;;;;;;;;;;5175837;27;20022;-74
2023/09/29 11:03:40;;;;;;;17.10;6.80;;;;;;;;;;5176522;27;20035;-75
2023/09/29 11:06:26;;;;;;;12.70;7.15;;;;;;;;;;5172356;27;20083;-73
2023/09/29 11:09:20;;;;;;;17.65;7.43;;;;;;;;;;5176028;27;20022;-73
2023/09/29 11:12:05;;;;;;;11.30;6.50;;;;;;;;;;5174739;27;20018;-73
2023/09/29 11:14:51;;;;;;;18.67;7.28;;;;;;;;;;5161502;27;20021;-73
2023/09/29 11:17:44;;;;;;;17.08;7.10;;;;;;;;;;5175551;27;20333;-73
2023/09/29 11:20:30;;;;;;;15.65;7.10;;;;;;;;;;5176147;27;20018;-74
2023/09/29 11:23:16;;;;;;;16.65;6.57;;;;;;;;;;5168349;27;20055;-73
2023/09/29 11:26:09;;;;;;;13.65;7.00;;;;;;;;;;5174902;27;20033;-73
2023/09/29 11:28:55;;;;;;;16.73;6.78;;;;;;;;;;5175443;27;20022;-72
2023/09/29 11:31:41;;;;;;;17.17;6.65;;;;;;;;;;5175778;27;20015;-72
2023/09/29 11:34:29;;;;;;;15.40;6.60;;;;;;;;;;5160993;27;20018;-73
2023/09/29 11:37:15;;;;;;;13.15;6.57;;;;;;;;;;5175518;27;20060;-73
2023/09/29 11:40:06;;;;;;;19.25;6.78;;;;;;;;;;5176306;27;20360;-72
2023/09/29 11:42:51;;;;;;;13.85;6.53;;;;;;;;;;5154713;27;20488;-72
2023/09/29 11:45:37;;;;;;;19.42;6.90;;;;;;;;;;5154458;27;20027;-74
2023/09/29 11:48:22;;;;;;;12.50;6.85;;;;;;;;;;5155545;27;20059;-73
2023/09/29 11:51:09;;;;;;;15.60;6.50;;;;;;;;;;5155401;27;20126;-73
2023/09/29 11:53:54;;;;;;;17.10;6.70;;;;;;;;;;5155845;27;20018;-74
2023/09/29 11:56:40;;;;;;;10.50;6.47;;;;;;;;;;5140354;27;20023;-73
2023/09/29 11:59:25;;;;;;;17.20;7.80;;;;;;;;;;5154802;27;20042;-73
2023/09/29 12:02:13;;;;;;;12.10;6.55;;;;;;;;;;5154761;27;20030;-73
2023/09/29 12:05:00;;;;;;;16.08;8.38;;;;;;;;;;5154859;27;20030;-72
2023/09/29 12:07:45;;;;;;;12.90;6.95;;;;;;;;;;5155206;27;20019;-72
2023/09/29 12:10:31;;;;;;;20.08;6.80;;;;;;;;;;5154869;27;20019;-72
2023/09/29 12:13:17;;;;;;;18.60;6.60;;;;;;;;;;5154830;27;20336;-72
2023/09/29 12:16:04;;;;;;;13.15;6.53;;;;;;;;;;5153764;27;20023;-73
2023/09/29 12:18:49;;;;;;;16.35;6.63;;;;;;;;;;5173250;27;20023;-73
2023/09/29 12:21:35;;;;;;;12.63;6.78;;;;;;;;;;5176854;27;20332;-71
2023/09/29 12:24:21;;;;;;;17.88;6.38;;;;;;;;;;5176053;27;20337;-73
2023/09/29 12:27:09;;;;;;;16.77;6.32;;;;;;;;;;5176411;27;20062;-72
2023/09/29 12:29:55;;;;;;;13.55;6.05;;;;;;;;;;5176268;27;20478;-74
2023/09/29 12:32:42;;;;;;;15.38;6.50;;;;;;;;;;5160592;27;20057;-73
2023/09/29 12:35:27;;;;;;;23.25;6.40;;;;;;;;;;5174783;27;20112;-74
2023/09/29 12:38:13;;;;;;;14.43;6.15;;;;;;;;;;5178757;27;20345;-73
2023/09/29 12:40:58;;;;;;;24.77;6.60;;;;;;;;;;5179295;27;20015;-73
2023/09/29 12:43:44;;;;;;;11.77;5.97;;;;;;;;;;5178439;27;20037;-73
2023/09/29 12:46:30;;;;;;;13.23;6.30;;;;;;;;;;5179411;27;20466;-74
2023/09/29 12:49:15;;;;;;;16.17;6.43;;;;;;;;;;5188587;27;20419;-72
2023/09/29 12:52:01;;;;;;;12.18;5.43;;;;;;;;;;5183733;27;20093;-73
2023/09/29 12:54:47;;;;;;;16.40;5.65;;;;;;;;;;5180238;27;20010;-73
2023/09/29 12:57:33;;;;;;;16.23;6.03;;;;;;;;;;5179075;27;20515;-73
2023/09/29 13:00:19;;;;;;;13.32;5.60;;;;;;;;;;5182520;27;20018;-72
2023/09/29 13:03:05;;;;;;;12.68;5.60;;;;;;;;;;5164228;27;20022;-74
2023/09/29 13:05:56;;;;;;;12.82;5.18;;;;;;;;;;5178708;27;20057;-73
2023/09/29 13:08:42;;;;;;;10.80;5.28;;;;;;;;;;5177843;27;20058;-72
2023/09/29 13:11:27;;;;;;;18.60;5.57;;;;;;;;;;5178527;27;20018;-72
2023/09/29 13:14:13;;;;;;;11.23;5.18;;;;;;;;;;5177959;27;20045;-72
2023/09/29 13:16:58;;;;;;;10.13;4.75;;;;;;;;;;5149368;27;20010;-72
2023/09/29 13:19:44;;;;;;;18.05;5.43;;;;;;;;;;5178933;27;20022;-73
2023/09/29 13:22:29;;;;;;;13.88;4.78;;;;;;;;;;5178678;27;20021;-73
2023/09/29 13:25:15;;;;;;;12.57;5.15;;;;;;;;;;5177470;27;20440;-73
2023/09/29 13:28:02;;;;;;;12.52;5.00;;;;;;;;;;5163625;27;20478;-72
2023/09/29 13:30:47;;;;;;;20.90;5.32;;;;;;;;;;5163496;27;20435;-73
2023/09/29 13:33:34;;;;;;;11.55;5.07;;;;;;;;;;5163207;27;20046;-72
2023/09/29 13:36:19;;;;;;;17.60;4.63;;;;;;;;;;5177751;27;20050;-72
2023/09/29 13:39:05;;;;;;;10.65;4.93;;;;;;;;;;5177722;27;20434;-73
2023/09/29 13:41:51;;;;;;;14.20;4.80;;;;;;;;;;5177838;27;20099;-73
2023/09/29 13:44:38;;;;;;;16.10;5.00;;;;;;;;;;5176961;27;20038;-73
2023/09/29 13:47:26;;;;;;;17.27;5.20;;;;;;;;;;5177001;27;20029;-73
2023/09/29 13:50:12;;;;;;;16.42;4.88;;;;;;;;;;5177178;27;20495;-73
2023/09/29 13:52:57;;;;;;;9.73;4.65;;;;;;;;;;5178317;27;20030;-72
2023/09/29 13:55:43;;;;;;;15.95;5.90;;;;;;;;;;5177873;27;20097;-72
2023/09/29 13:58:28;;;;;;;16.27;5.32;;;;;;;;;;5162978;27;20010;-73
2023/09/29 14:01:17;;;;;;;14.10;5.20;;;;;;;;;;5178297;27;20052;-73
2023/09/29 14:04:03;;;;;;;16.45;5.18;;;;;;;;;;5177124;27;20018;-73
2023/09/29 14:06:51;;;;;;;14.13;5.25;;;;;;;;;;5177725;27;20097;-72
2023/09/29 14:09:39;;;;;;;18.30;5.10;;;;;;;;;;5177250;27;20064;-72
2023/09/29 14:12:24;;;;;;;10.95;5.05;;;;;;;;;;5176477;27;20019;-71
2023/09/29 14:15:10;;;;;;;13.07;4.95;;;;;;;;;;5177429;27;20018;-73
2023/09/29 14:17:56;;;;;;;19.17;4.93;;;;;;;;;;5167314;27;20015;-71
2023/09/29 14:20:43;;;;;;;9.20;4.40;;;;;;;;;;5156449;27;20102;-72
2023/09/29 14:23:29;;;;;;;10.38;4.55;;;;;;;;;;5157176;27;20034;-72
2023/09/29 14:26:15;;;;;;;16.48;5.60;;;;;;;;;;5155779;27;20033;-72
2023/09/29 14:29:00;;;;;;;18.98;5.47;;;;;;;;;;5155431;27;20061;-73
2023/09/29 14:31:46;;;;;;;19.02;4.75;;;;;;;;;;5156514;27;20088;-74
2023/09/29 14:34:32;;;;;;;14.68;4.68;;;;;;;;;;5156540;27;20033;-73
2023/09/29 14:37:18;;;;;;;19.65;5.30;;;;;;;;;;5155426;27;20042;-72
2023/09/29 14:40:04;;;;;;;11.93;5.05;;;;;;;;;;5155894;27;20022;-73
2023/09/29 14:42:50;;;;;;;14.32;4.30;;;;;;;;;;5156322;27;20026;-72
2023/09/29 14:45:35;;;;;;;15.93;5.10;;;;;;;;;;5155932;27;20471;-73
2023/09/29 14:48:21;;;;;;;13.95;5.20;;;;;;;;;;5155707;27;20038;-72
2023/09/29 14:51:08;;;;;;;13.38;4.97;;;;;;;;;;5155382;27;20048;-72
2023/09/29 14:53:53;;;;;;;9.73;4.40;;;;;;;;;;5155627;27;20361;-72
2023/09/29 14:56:39;;;;;;;16.27;5.30;;;;;;;;;;5155349;27;20102;-72
2023/09/29 14:59:25;;;;;;;14.32;5.32;;;;;;;;;;5155796;27;20058;-71
2023/09/29 15:02:10;;;;;;;12.98;4.40;;;;;;;;;;5155208;27;20360;-73
2023/09/29 15:04:56;;;;;;;13.45;4.57;;;;;;;;;;5155469;27;20426;-73
2023/09/29 15:07:42;;;;;;;14.90;5.13;;;;;;;;;;5155659;27;20037;-72
2023/09/29 15:10:27;;;;;;;11.13;4.90;;;;;;;;;;5155310;27;20023;-74
2023/09/29 15:13:13;;;;;;;15.52;5.40;;;;;;;;;;5155188;27;20015;-73
2023/09/29 15:15:59;;;;;;;15.05;4.78;;;;;;;;;;5155161;27;20019;-73
2023/09/29 15:18:49;;;;;;;20.50;5.65;;;;;;;;;;5171659;27;20062;-71
2023/09/29 15:21:36;;;;;;;15.30;5.18;;;;;;;;;;5174632;27;20105;-71
2023/09/29 15:24:22;;;;;;;20.13;5.60;;;;;;;;;;5160806;27;20444;-70
2023/09/29 15:27:07;;;;;;;17.27;5.53;;;;;;;;;;5161053;27;20023;-71
2023/09/29 15:29:53;;;;;;;13.27;6.30;;;;;;;;;;5175577;27;20022;-72
2023/09/29 15:32:38;;;;;;;14.10;6.45;;;;;;;;;;5161426;27;20026;-72
2023/09/29 15:35:24;;;;;;;19.02;7.30;;;;;;;;;;5159341;27;20020;-71
2023/09/29 15:38:11;;;;;;;15.60;7.00;;;;;;;;;;5175681;27;20022;-72
2023/09/29 15:40:56;;;;;;;17.98;5.75;;;;;;;;;;5160301;27;20506;-71
2023/09/29 15:43:42;;;;;;;17.77;5.72;;;;;;;;;;5160299;27;20428;-72
2023/09/29 15:46:28;;;;;;;13.35;5.93;;;;;;;;;;5159575;27;20043;-72
2023/09/29 15:49:13;;;;;;;22.80;6.32;;;;;;;;;;5174246;27;20125;-72
2023/09/29 15:52:03;;;;;;;22.08;6.85;;;;;;;;;;5175653;27;20014;-71
2023/09/29 15:54:48;;;;;;;22.23;6.20;;;;;;;;;;5174708;27;20439;-73
2023/09/29 15:57:34;;;;;;;14.00;5.55;;;;;;;;;;5174211;27;20014;-72
2023/09/29 16:00:20;;;;;;;18.60;6.00;;;;;;;;;;5174741;27;20105;-70
2023/09/29 16:03:06;;;;;;;17.20;6.22;;;;;;;;;;5175424;27;20026;-72
2023/09/29 16:05:51;;;;;;;27.23;6.65;;;;;;;;;;5175509;27;20478;-72
2023/09/29 16:08:37;;;;;;;19.83;6.95;;;;;;;;;;5176331;27;20018;-71
2023/09/29 16:11:23;;;;;;;23.85;7.00;;;;;;;;;;5176314;27;20015;-71
2023/09/29 16:14:09;;;;;;;22.83;6.72;;;;;;;;;;5179430;27;20018;-71
2023/09/29 16:16:55;;;;;;;22.10;7.53;;;;;;;;;;5177494;27;20093;-72
2023/09/29 16:19:41;;;;;;;18.52;7.28;;;;;;;;;;5168153;27;20458;-72
2023/09/29 16:22:27;;;;;;;21.80;7.70;;;;;;;;;;5179094;27;20468;-72